Time;durP1;ratioP1;P1;durP2;ratioP2;P2;SDS_P1;SDS_P2;PMS_P1;PMS_P2;Temp;Humidity;BMP_temperature;BMP_pressure;BME280_temperature;BME280_humidity;BME280_pressure;Samples;Min_cycle;Max_cycle;Signal;HPM_P1;HPM_P2
2023/10/14 00:02:21;;;;;;;12.95;4.53;;;;;;;17.18;100.00;99293.16;6118101;28;20060;-69
2023/10/14 00:05:19;;;;;;;10.38;4.15;;;;;;;17.24;100.00;99291.44;6120569;28;20029;-68
2023/10/14 00:08:15;;;;;;;8.77;4.40;;;;;;;17.35;100.00;99279.97;6120811;28;20033;-68
2023/10/14 00:11:13;;;;;;;11.27;4.10;;;;;;;17.45;100.00;99272.22;6119646;28;20056;-68
2023/10/14 00:14:16;;;;;;;11.80;4.80;;;;;;;17.45;100.00;99256.13;6120928;28;20025;-68
2023/10/14 00:17:18;;;;;;;16.33;4.80;;;;;;;17.58;100.00;99266.69;6120581;28;20038;-69
2023/10/14 00:20:14;;;;;;;13.55;5.40;;;;;;;17.58;100.00;99255.97;6119674;28;20086;-68
2023/10/14 00:23:11;;;;;;;10.15;4.10;;;;;;;17.58;100.00;99242.56;6120708;28;20024;-69
2023/10/14 00:26:14;;;;;;;14.48;4.78;;;;;;;17.62;100.00;99235.72;6120092;28;20025;-67
2023/10/14 00:32:10;;;;;;;13.40;4.40;;;;;;;17.67;100.00;99227.81;6120136;28;20042;-68
2023/10/14 00:35:09;;;;;;;12.00;3.80;;;;;;;17.88;100.00;99239.09;6120799;28;20546;-67
2023/10/14 00:38:10;;;;;;;8.85;3.90;;;;;;;17.65;100.00;99196.91;6120511;28;20017;-68
2023/10/14 00:41:08;;;;;;;11.70;4.35;;;;;;;17.91;100.00;99223.31;6120216;28;20033;-67
2023/10/14 00:44:04;;;;;;;10.32;4.65;;;;;;;17.90;100.00;99227.06;6120459;28;20040;-68
2023/10/14 00:47:02;;;;;;;8.63;3.83;;;;;;;17.97;100.00;99216.22;6120339;28;20430;-68
2023/10/14 00:49:58;;;;;;;10.23;4.10;;;;;;;17.87;100.00;99200.72;6099591;28;20035;-67
2023/10/14 00:53:00;;;;;;;15.27;4.38;;;;;;;17.84;100.00;99202.00;6120075;28;20033;-68
2023/10/14 00:55:56;;;;;;;10.93;4.15;;;;;;;17.79;100.00;99191.13;6110612;28;20025;-67
2023/10/14 00:58:57;;;;;;;10.90;3.83;;;;;;;17.82;100.00;99190.69;6106033;28;20468;-68
2023/10/14 01:01:55;;;;;;;9.20;3.83;;;;;;;17.80;100.00;99178.56;6115457;28;20484;-67
2023/10/14 01:04:53;;;;;;;9.15;4.80;;;;;;;17.85;100.00;99171.41;6124393;28;20079;-67
2023/10/14 01:07:49;;;;;;;10.32;4.05;;;;;;;17.52;100.00;99133.56;6124120;28;20098;-68
2023/10/14 01:10:44;;;;;;;9.27;4.15;;;;;;;17.60;100.00;99157.41;6123617;28;20631;-67
2023/10/14 01:13:39;;;;;;;9.38;3.95;;;;;;;17.55;100.00;99165.31;6124314;28;20028;-67
2023/10/14 01:16:37;;;;;;;9.83;3.50;;;;;;;17.33;100.00;99142.72;6123770;28;20035;-66
2023/10/14 01:19:32;;;;;;;9.15;3.78;;;;;;;17.49;100.00;99149.28;6127863;28;20267;-67
2023/10/14 01:22:29;;;;;;;8.20;3.67;;;;;;;17.48;100.00;99140.41;6122338;28;20043;-68
2023/10/14 01:25:29;;;;;;;8.98;3.45;;;;;;;17.54;100.00;99142.22;6124500;28;20033;-67
2023/10/14 01:28:30;;;;;;;;;;;;;;;17.48;100.00;99153.00;6119466;28;20395;-67
2023/10/14 01:32:06;;;;;;;9.85;3.33;;;;;;;17.55;100.00;99138.50;6124754;28;19912;-67
2023/10/14 01:35:12;;;;;;;6.63;3.60;;;;;;;17.56;100.00;99150.03;6080236;28;20146;-67
2023/10/14 01:38:08;;;;;;;10.18;3.83;;;;;;;17.58;100.00;99146.06;6123962;28;20071;-67
2023/10/14 01:41:04;;;;;;;9.00;4.45;;;;;;;17.71;100.00;99145.06;6122564;28;20043;-68
2023/10/14 01:44:02;;;;;;;11.30;4.00;;;;;;;17.72;100.00;99125.22;6122847;28;20460;-66
2023/10/14 01:47:01;;;;;;;10.30;3.85;;;;;;;17.89;100.00;99133.41;6123686;28;20494;-67
2023/10/14 01:49:56;;;;;;;8.02;4.40;;;;;;;17.84;100.00;99105.44;6123111;28;20110;-66
2023/10/14 01:52:53;;;;;;;10.27;4.27;;;;;;;17.96;100.00;99124.22;6122289;28;20040;-67
2023/10/14 01:55:57;;;;;;;10.48;4.50;;;;;;;17.91;100.00;99099.16;6123187;28;20287;-66
2023/10/14 01:58:57;;;;;;;7.75;3.90;;;;;;;17.91;100.00;99107.19;6121436;28;20418;-68
2023/10/14 02:01:57;;;;;;;11.82;4.13;;;;;;;17.90;100.00;99105.56;6121781;28;20039;-69
2023/10/14 02:04:56;;;;;;;13.07;4.45;;;;;;;17.93;100.00;99113.13;6122449;28;20087;-66
2023/10/14 02:07:52;;;;;;;9.93;4.53;;;;;;;18.01;100.00;99107.44;6122927;28;20472;-67
2023/10/14 02:10:53;;;;;;;14.10;4.15;;;;;;;18.11;100.00;99107.66;6121835;28;20039;-68
2023/10/14 02:13:52;;;;;;;8.27;3.70;;;;;;;18.18;100.00;99116.41;6118051;28;20083;-66
2023/10/14 02:16:47;;;;;;;11.38;4.75;;;;;;;18.30;100.00;99130.63;6117234;28;20043;-67
2023/10/14 02:19:49;;;;;;;9.87;3.80;;;;;;;18.37;100.00;99134.03;6122630;28;20037;-67
2023/10/14 02:22:45;;;;;;;8.30;3.70;;;;;;;18.37;100.00;99134.03;6121937;28;20368;-67
2023/10/14 02:25:40;;;;;;;9.50;4.57;;;;;;;18.51;100.00;99159.56;6122983;28;20068;-67
2023/10/14 02:28:43;;;;;;;10.27;4.47;;;;;;;18.45;100.00;99166.66;6122305;28;20183;-66
2023/10/14 02:31:40;;;;;;;8.15;4.18;;;;;;;18.16;100.00;99190.94;6116662;28;20059;-67
2023/10/14 02:34:36;;;;;;;3.50;1.23;;;;;;;17.45;100.00;99207.88;6122555;28;20028;-68
2023/10/14 02:37:31;;;;;;;15.13;1.70;;;;;;;16.45;100.00;99262.75;6121388;28;20044;-75
2023/10/14 02:40:27;;;;;;;5.15;1.02;;;;;;;14.59;100.00;99338.81;6123239;28;20036;-75
2023/10/14 02:43:28;;;;;;;4.22;0.85;;;;;;;12.61;100.00;99349.59;6121986;28;20375;-73
2023/10/14 02:46:25;;;;;;;2.08;0.60;;;;;;;11.99;100.00;99309.59;6122680;28;20032;-73
2023/10/14 02:49:25;;;;;;;2.90;0.85;;;;;;;12.27;100.00;99353.00;6121340;28;20035;-72
2023/10/14 02:52:29;;;;;;;2.83;0.60;;;;;;;12.21;100.00;99339.63;6121980;28;20039;-71
2023/10/14 02:55:25;;;;;;;0.82;0.55;;;;;;;11.88;100.00;99326.03;6121849;28;20036;-74
2023/10/14 02:58:21;;;;;;;3.78;0.60;;;;;;;11.79;100.00;99321.84;6121762;28;20119;-74
2023/10/14 03:01:22;;;;;;;4.22;1.20;;;;;;;11.74;100.00;99319.75;6121093;28;20039;-74
2023/10/14 03:04:23;;;;;;;4.82;0.60;;;;;;;11.85;100.00;99343.16;6121335;28;20048;-77
2023/10/14 03:07:28;;;;;;;2.67;0.80;;;;;;;11.82;100.00;99342.72;6121690;28;20058;-74
2023/10/14 03:13:19;;;;;;;2.60;0.70;;;;;;;11.87;100.00;99330.53;6121575;28;20399;-72
2023/10/14 03:16:17;;;;;;;3.90;0.70;;;;;;;11.81;100.00;99371.13;6121094;28;20025;-72
2023/10/14 03:19:12;;;;;;;3.13;0.90;;;;;;;11.82;100.00;99401.97;6120065;28;20058;-72
2023/10/14 03:22:07;;;;;;;6.77;0.63;;;;;;;11.87;100.00;99415.53;6121833;28;20028;-71
2023/10/14 03:25:07;;;;;;;2.80;0.90;;;;;;;11.91;100.00;99426.59;6102894;28;20320;-70
2023/10/14 03:28:08;;;;;;;7.25;1.15;;;;;;;12.00;100.00;99451.22;6121740;28;20074;-75
2023/10/14 03:31:07;;;;;;;1.52;0.63;;;;;;;11.94;100.00;99469.56;6120448;28;20107;-72
2023/10/14 03:34:08;;;;;;;2.15;0.63;;;;;;;11.88;100.00;99472.94;6121133;28;20419;-71
2023/10/14 03:37:18;;;;;;;;;;;;;;;11.97;100.00;99494.09;6121708;28;20162;-70
2023/10/14 03:43:27;;;;;;;1.02;0.60;;;;;;;12.04;100.00;99508.31;6121187;28;20029;-70
2023/10/14 03:46:34;;;;;;;2.92;0.77;;;;;;;12.08;100.00;99520.22;6121159;28;20032;-71
2023/10/14 03:49:32;;;;;;;3.30;0.60;;;;;;;12.05;100.00;99547.16;6119380;28;20076;-71
2023/10/14 03:52:28;;;;;;;4.20;1.10;;;;;;;12.05;100.00;99544.50;6120704;28;20037;-76
2023/10/14 03:55:26;;;;;;;3.63;0.93;;;;;;;11.96;100.00;99545.59;6121114;28;20436;-74
2023/10/14 03:58:21;;;;;;;6.05;1.00;;;;;;;12.00;100.00;99546.88;6120967;28;20024;-74
2023/10/14 04:01:22;;;;;;;1.10;0.60;;;;;;;12.00;100.00;99555.69;6115638;28;20063;-72
2023/10/14 04:04:18;;;;;;;1.00;0.70;;;;;;;12.05;100.00;99557.78;6118789;28;20305;-72
2023/10/14 04:07:14;;;;;;;3.72;0.73;;;;;;;12.06;100.00;99565.56;6120689;28;20020;-72
2023/10/14 04:10:11;;;;;;;1.48;0.60;;;;;;;12.00;100.00;99576.09;6116157;28;20486;-70
2023/10/14 04:13:12;;;;;;;2.25;0.80;;;;;;;12.05;100.00;99571.06;6120266;28;20038;-71
2023/10/14 04:16:11;;;;;;;1.73;0.60;;;;;;;12.05;100.00;99571.06;6117703;28;20032;-70
2023/10/14 04:19:22;;;;;;;2.92;0.52;;;;;;;12.06;100.00;99588.66;6120610;28;20028;-70
2023/10/14 04:25:19;;;;;;;1.73;0.70;;;;;;;11.95;100.00;99592.59;6120581;28;20051;-69
2023/10/14 04:31:16;;;;;;;5.70;0.90;;;;;;;11.90;100.00;99593.13;6125232;28;20032;-75
2023/10/14 04:34:14;;;;;;;1.88;1.00;;;;;;;11.92;100.00;99623.00;6131358;28;20032;-75
2023/10/14 04:37:16;;;;;;;4.03;1.33;;;;;;;11.81;100.00;99646.53;6124581;28;20037;-73
2023/10/14 04:40:18;;;;;;;2.67;0.85;;;;;;;11.81;100.00;99650.03;6124533;28;20021;-73
2023/10/14 04:46:21;;;;;;;6.43;1.77;;;;;;;11.54;100.00;99655.88;6125288;28;20029;-71
2023/10/14 04:49:18;;;;;;;9.75;1.60;;;;;;;11.48;100.00;99661.03;6124499;28;20032;-72
2023/10/14 04:52:22;;;;;;;7.00;1.20;;;;;;;11.41;100.00;99660.13;6125118;28;20038;-70
2023/10/14 04:58:24;;;;;;;6.57;1.40;;;;;;;11.16;100.00;99648.84;6124763;28;20024;-69
2023/10/14 05:01:19;;;;;;;4.22;1.02;;;;;;;11.12;100.00;99663.44;6124097;28;20028;-69
2023/10/14 05:04:19;;;;;;;4.60;1.47;;;;;;;11.07;100.00;99671.09;6124110;28;20395;-69
2023/10/14 05:07:15;;;;;;;4.95;1.35;;;;;;;11.02;100.00;99674.28;6124437;28;20023;-69
2023/10/14 05:10:11;;;;;;;5.88;1.67;;;;;;;11.11;100.00;99693.66;6126692;28;20391;-69
2023/10/14 05:13:09;;;;;;;4.32;0.95;;;;;;;11.02;100.00;99690.22;6124028;28;20041;-70
2023/10/14 05:16:26;;;;;;;6.43;1.17;;;;;;;10.94;100.00;99697.38;6124205;28;20487;-69
2023/10/14 05:19:29;;;;;;;4.60;1.15;;;;;;;10.98;100.00;99709.31;6121694;28;20075;-69
2023/10/14 05:22:37;;;;;;;5.97;1.20;;;;;;;10.98;100.00;99733.19;6124164;28;20078;-68
2023/10/14 05:25:37;;;;;;;7.25;1.65;;;;;;;10.94;100.00;99745.94;6124003;28;20479;-68
2023/10/14 05:28:36;;;;;;;10.27;1.10;;;;;;;10.78;100.00;99761.94;6123799;28;20098;-68
2023/10/14 05:31:33;;;;;;;16.38;2.33;;;;;;;10.69;100.00;99753.16;6123876;28;20039;-68
2023/10/14 05:34:29;;;;;;;9.25;1.65;;;;;;;10.53;100.00;99763.81;6123487;28;20052;-69
2023/10/14 05:37:25;;;;;;;6.25;1.10;;;;;;;10.52;100.00;99764.78;6121933;28;20028;-69
2023/10/14 05:40:21;;;;;;;13.23;2.17;;;;;;;10.59;100.00;99784.34;6123908;28;20036;-68
2023/10/14 05:43:19;;;;;;;6.18;1.38;;;;;;;10.53;100.00;99803.56;6127439;28;20032;-67
2023/10/14 05:46:14;;;;;;;6.15;1.38;;;;;;;10.48;100.00;99791.81;6123996;28;20107;-68
2023/10/14 05:49:10;;;;;;;3.50;1.40;;;;;;;10.55;100.00;99821.94;6123253;28;20027;-66
2023/10/14 05:52:05;;;;;;;3.45;0.82;;;;;;;10.47;100.00;99838.69;6123867;28;20025;-68
2023/10/14 05:55:01;;;;;;;11.35;1.30;;;;;;;10.46;100.00;99844.97;6122686;28;20024;-67
2023/10/14 05:58:02;;;;;;;4.70;1.25;;;;;;;10.42;100.00;99848.97;6124731;28;20043;-68
2023/10/14 06:00:57;;;;;;;6.20;1.52;;;;;;;10.38;100.00;99855.59;6122596;28;20116;-68
2023/10/14 06:03:53;;;;;;;9.43;1.53;;;;;;;10.44;100.00;99870.84;6122483;28;20037;-68
2023/10/14 06:06:48;;;;;;;4.25;1.08;;;;;;;10.39;100.00;99878.47;6116579;28;20383;-68
2023/10/14 06:09:45;;;;;;;6.50;1.50;;;;;;;10.30;100.00;99882.09;6122826;28;20036;-68
2023/10/14 06:12:44;;;;;;;4.40;1.27;;;;;;;10.23;100.00;99885.56;6116169;28;20032;-68
2023/10/14 06:15:41;;;;;;;7.78;1.58;;;;;;;10.31;100.00;99890.88;6117131;28;20063;-67
2023/10/14 06:18:37;;;;;;;6.80;1.40;;;;;;;10.35;100.00;99922.19;6119290;28;20032;-68
2023/10/14 06:21:33;;;;;;;4.45;0.90;;;;;;;10.35;100.00;99922.19;6119055;28;20059;-67
2023/10/14 06:24:29;;;;;;;3.33;1.10;;;;;;;10.42;100.00;99936.44;6119543;28;20033;-67
2023/10/14 06:27:25;;;;;;;6.68;0.95;;;;;;;10.44;100.00;99941.56;6119190;28;20020;-68
2023/10/14 06:30:20;;;;;;;6.03;1.25;;;;;;;10.46;100.00;99939.59;6117887;28;20036;-66
2023/10/14 06:33:16;;;;;;;7.63;1.35;;;;;;;10.51;100.00;99958.50;6115073;28;20024;-68
2023/10/14 06:36:14;;;;;;;5.53;1.60;;;;;;;10.57;100.00;99971.09;6123028;28;20061;-67
2023/10/14 06:39:17;;;;;;;4.25;1.17;;;;;;;10.59;100.00;99958.50;6125025;28;20051;-66
2023/10/14 06:42:22;;;;;;;8.68;1.70;;;;;;;10.74;100.00;99964.78;6121414;28;20142;-66
2023/10/14 06:45:31;;;;;;;5.22;1.05;;;;;;;10.92;100.00;99980.53;6121758;28;20493;-67
2023/10/14 06:48:27;;;;;;;9.43;1.30;;;;;;;10.96;100.00;99971.25;6122087;28;20036;-68
2023/10/14 06:51:23;;;;;;;6.95;1.58;;;;;;;11.05;100.00;99980.88;6112786;28;20171;-66
2023/10/14 06:54:25;;;;;;;5.60;1.53;;;;;;;11.19;100.00;99998.78;6121831;28;20020;-67
2023/10/14 06:57:22;;;;;;;2.90;1.20;;;;;;;11.23;100.00;100010.69;6121620;28;20024;-66
2023/10/14 07:00:25;;;;;;;10.00;1.55;;;;;;;11.29;100.00;100015.34;6120581;28;20024;-67
2023/10/14 07:03:22;;;;;;;7.55;1.50;;;;;;;11.42;100.00;100022.78;6124202;28;20444;-67
2023/10/14 07:06:18;;;;;;;8.60;1.00;;;;;;;11.46;100.00;100027.59;6118248;28;20396;-66
2023/10/14 07:09:17;;;;;;;3.75;1.40;;;;;;;11.46;100.00;100027.59;6121266;28;20070;-67
2023/10/14 07:12:15;;;;;;;5.47;1.58;;;;;;;11.56;100.00;100022.94;6120223;28;20039;-67
2023/10/14 07:15:13;;;;;;;4.72;1.08;;;;;;;11.73;100.00;100045.00;6121724;28;20031;-66
2023/10/14 07:18:08;;;;;;;10.10;1.30;;;;;;;11.77;100.00;100047.13;6120591;28;20553;-65
2023/10/14 07:21:08;;;;;;;8.03;1.40;;;;;;;11.87;100.00;100046.97;6120359;28;20040;-66
2023/10/14 07:24:07;;;;;;;5.78;1.42;;;;;;;12.03;100.00;100067.34;6120297;28;20036;-64
2023/10/14 07:27:03;;;;;;;6.30;1.02;;;;;;;12.01;100.00;100058.72;6120550;28;20349;-67
2023/10/14 07:30:00;;;;;;;5.55;1.20;;;;;;;12.15;100.00;100071.28;6118187;28;20345;-67
2023/10/14 07:32:55;;;;;;;7.95;1.83;;;;;;;12.16;100.00;100086.22;6119639;28;20063;-66
2023/10/14 07:35:51;;;;;;;5.85;0.85;;;;;;;12.24;100.00;100070.25;6118979;28;20043;-67
2023/10/14 07:38:46;;;;;;;9.67;1.23;;;;;;;12.45;100.00;100089.09;6120700;28;20091;-65
2023/10/14 07:41:41;;;;;;;8.73;2.03;;;;;;;12.49;100.00;100087.75;6119015;28;20044;-67
2023/10/14 07:44:37;;;;;;;10.23;1.27;;;;;;;12.47;100.00;100079.94;6121365;28;20075;-67
2023/10/14 07:47:32;;;;;;;9.93;1.07;;;;;;;12.52;100.00;100090.06;6119720;28;20384;-65
2023/10/14 07:50:31;;;;;;;4.43;1.00;;;;;;;12.62;100.00;100106.63;6122709;28;20396;-67
2023/10/14 07:53:27;;;;;;;6.90;1.17;;;;;;;12.57;100.00;100106.31;6116172;28;20150;-66
2023/10/14 07:56:23;;;;;;;6.13;2.13;;;;;;;12.70;100.00;100119.06;6120364;28;20025;-65
2023/10/14 07:59:19;;;;;;;10.65;1.00;;;;;;;12.70;100.00;100122.56;6119511;28;20036;-67
2023/10/14 08:02:18;;;;;;;8.02;1.00;;;;;;;12.69;100.00;100115.56;6118043;28;20024;-67
2023/10/14 08:05:13;;;;;;;9.70;1.25;;;;;;;12.85;100.00;100128.81;6134406;28;20032;-66
2023/10/14 08:08:09;;;;;;;7.40;1.00;;;;;;;13.11;100.00;100133.81;6129844;28;20035;-66
2023/10/14 08:11:05;;;;;;;10.45;1.38;;;;;;;13.16;100.00;100133.28;6120354;28;20086;-66
2023/10/14 08:14:00;;;;;;;5.13;1.30;;;;;;;13.10;100.00;100138.31;6126147;28;20028;-66
2023/10/14 08:16:57;;;;;;;10.30;1.20;;;;;;;13.20;100.00;100155.91;6124272;28;20044;-65
2023/10/14 08:19:53;;;;;;;6.05;1.35;;;;;;;13.07;100.00;100141.31;6133731;28;20369;-65
2023/10/14 08:22:48;;;;;;;7.00;0.93;;;;;;;13.17;100.00;100153.59;6126001;28;20056;-67
2023/10/14 08:25:43;;;;;;;4.63;0.87;;;;;;;13.13;100.00;100152.31;6119806;28;20052;-68
2023/10/14 08:28:38;;;;;;;7.53;1.47;;;;;;;13.08;100.00;100169.59;6122660;28;20036;-66
2023/10/14 08:31:34;;;;;;;6.80;1.03;;;;;;;12.93;100.00;100168.69;6123352;28;20138;-67
2023/10/14 08:34:29;;;;;;;10.23;1.27;;;;;;;12.90;100.00;100166.38;6124349;28;20282;-67
2023/10/14 08:37:24;;;;;;;11.53;1.30;;;;;;;12.77;100.00;100174.09;6118179;28;20109;-66
2023/10/14 08:40:21;;;;;;;4.97;1.17;;;;;;;12.76;100.00;100184.88;6128750;28;20083;-66
2023/10/14 08:43:25;;;;;;;10.35;3.83;;;;;;;12.79;100.00;100193.34;6123819;28;20013;-66
2023/10/14 08:46:23;;;;;;;7.13;1.30;;;;;;;12.75;100.00;100192.03;6106241;28;20111;-66
2023/10/14 08:49:23;;;;;;;4.60;1.05;;;;;;;12.86;100.00;100207.63;6128374;28;20493;-66
2023/10/14 08:52:18;;;;;;;9.30;0.93;;;;;;;12.93;100.00;100181.16;6108354;28;20115;-67
2023/10/14 08:55:15;;;;;;;11.07;1.35;;;;;;;13.31;100.00;100193.59;6111437;28;20034;-66
2023/10/14 08:58:17;;;;;;;5.28;1.17;;;;;;;13.46;100.00;100183.00;6144667;28;20035;-66
2023/10/14 09:01:15;;;;;;;8.00;0.90;;;;;;;13.72;100.00;100202.13;6123598;28;20032;-66
2023/10/14 09:04:15;;;;;;;11.82;1.50;;;;;;;13.69;99.49;100214.00;6124619;28;20112;-67
2023/10/14 09:07:13;;;;;;;9.40;1.20;;;;;;;13.93;100.00;100223.63;6124078;28;20064;-66
2023/10/14 09:10:09;;;;;;;9.55;1.30;;;;;;;14.06;99.77;100210.50;6123992;28;20383;-66
2023/10/14 09:13:08;;;;;;;9.25;1.05;;;;;;;14.05;97.69;100216.03;6122962;28;20056;-66
2023/10/14 09:16:03;;;;;;;9.27;1.60;;;;;;;14.18;96.48;100230.41;6118074;28;20035;-68
2023/10/14 09:19:00;;;;;;;9.60;1.60;;;;;;;14.03;93.42;100228.69;6124153;28;20020;-67
2023/10/14 09:21:57;;;;;;;9.35;1.52;;;;;;;14.07;94.26;100225.50;6122795;28;20115;-66
2023/10/14 09:24:54;;;;;;;14.65;1.33;;;;;;;14.01;96.18;100233.38;6122304;28;20035;-67
2023/10/14 09:27:49;;;;;;;9.48;1.20;;;;;;;13.72;93.90;100228.78;6130419;28;20047;-66
2023/10/14 09:30:44;;;;;;;4.93;0.83;;;;;;;13.42;97.88;100237.66;6117612;28;20040;-65
2023/10/14 09:33:42;;;;;;;9.27;1.60;;;;;;;13.51;98.55;100241.91;6122513;28;20379;-66
2023/10/14 09:36:43;;;;;;;7.40;1.02;;;;;;;13.49;95.88;100260.75;6123014;28;20279;-67
2023/10/14 09:39:39;;;;;;;7.95;1.38;;;;;;;13.29;94.59;100243.53;6123515;28;20074;-67
2023/10/14 09:42:35;;;;;;;4.00;1.02;;;;;;;13.59;96.66;100249.84;6125093;28;20396;-68
2023/10/14 09:45:32;;;;;;;8.02;1.35;;;;;;;13.79;96.87;100259.03;6091846;28;20120;-66
2023/10/14 09:48:29;;;;;;;5.28;1.08;;;;;;;14.04;90.88;100249.00;6105531;28;20025;-66
2023/10/14 09:51:24;;;;;;;10.80;1.20;;;;;;;14.15;88.14;100259.25;6122496;28;20028;-67
2023/10/14 09:54:22;;;;;;;10.00;1.75;;;;;;;14.35;88.71;100259.63;6123350;28;20421;-67
2023/10/14 09:57:17;;;;;;;7.32;1.10;;;;;;;14.54;86.38;100267.09;6105696;28;20438;-66
2023/10/14 10:00:16;;;;;;;7.00;1.05;;;;;;;14.80;83.93;100264.81;6122373;28;20024;-68
2023/10/14 10:03:13;;;;;;;11.52;1.63;;;;;;;14.75;79.95;100252.00;6122947;28;20079;-67
2023/10/14 10:06:37;;;;;;;6.18;1.10;;;;;;;14.82;82.60;100281.44;6102682;28;20047;-67
2023/10/14 10:09:47;;;;;;;5.65;1.45;;;;;;;15.04;81.52;100277.88;6102025;28;20025;-66
2023/10/14 10:12:45;;;;;;;6.95;1.25;;;;;;;14.98;75.64;100270.59;6120504;28;20396;-67
2023/10/14 10:15:40;;;;;;;6.28;0.98;;;;;;;14.78;78.60;100277.50;6086604;28;20063;-66
2023/10/14 10:18:50;;;;;;;9.98;1.70;;;;;;;14.20;80.23;100276.38;6122702;28;20036;-67
2023/10/14 10:22:14;;;;;;;12.45;1.05;;;;;;;14.38;81.98;100299.28;6103606;28;20043;-67
2023/10/14 10:25:14;;;;;;;4.13;0.88;;;;;;;14.28;76.86;100294.13;6117704;28;20032;-67
2023/10/14 10:28:27;;;;;;;8.00;1.23;;;;;;;14.20;74.94;100289.72;6120344;28;20036;-67
2023/10/14 10:31:24;;;;;;;10.02;1.25;;;;;;;14.24;75.60;100304.31;6121662;28;20060;-66
2023/10/14 10:34:19;;;;;;;5.38;1.08;;;;;;;14.55;73.56;100317.59;6122237;28;20029;-67
2023/10/14 10:37:18;;;;;;;8.00;1.40;;;;;;;14.92;72.71;100314.03;6122390;28;20032;-66
2023/10/14 10:40:16;;;;;;;5.95;1.20;;;;;;;15.01;71.13;100315.63;6121509;28;20094;-66
2023/10/14 10:43:11;;;;;;;8.10;1.58;;;;;;;14.83;72.47;100325.84;6118698;28;20052;-67
2023/10/14 10:46:46;;;;;;;6.28;1.40;;;;;;;14.93;70.42;100314.88;6121899;28;20087;-66
2023/10/14 10:49:54;;;;;;;8.52;2.42;;;;;;;15.08;70.27;100329.06;6121828;28;20110;-67
2023/10/14 10:52:54;;;;;;;4.45;1.50;;;;;;;15.31;70.80;100311.06;6121551;28;20028;-67
2023/10/14 10:55:51;;;;;;;4.47;0.93;;;;;;;15.40;69.40;100326.84;6103609;28;20040;-67
2023/10/14 10:58:47;;;;;;;7.75;1.30;;;;;;;15.16;67.34;100321.78;6121633;28;20028;-66
2023/10/14 11:01:42;;;;;;;8.43;0.90;;;;;;;14.99;69.93;100330.16;6120368;28;20047;-65
2023/10/14 11:04:41;;;;;;;5.90;1.03;;;;;;;14.93;67.55;100339.75;6119077;28;20681;-66
2023/10/14 11:07:37;;;;;;;7.07;1.30;;;;;;;14.72;67.30;100334.28;6121336;28;20028;-67
2023/10/14 11:10:34;;;;;;;5.00;0.97;;;;;;;14.76;68.62;100351.59;6120282;28;20033;-67
2023/10/14 11:13:29;;;;;;;8.32;1.08;;;;;;;14.88;67.86;100336.78;6120156;28;20812;-66
2023/10/14 11:16:27;;;;;;;9.27;1.23;;;;;;;14.88;67.12;100339.47;6121549;28;20032;-67
2023/10/14 11:19:30;;;;;;;9.63;1.70;;;;;;;15.05;67.59;100340.13;6120987;28;20053;-66
2023/10/14 11:22:26;;;;;;;7.15;1.20;;;;;;;15.11;67.77;100318.03;6120565;28;20017;-66
2023/10/14 11:25:22;;;;;;;5.85;1.23;;;;;;;15.31;65.23;100348.47;6103809;28;20044;-65
2023/10/14 11:28:17;;;;;;;9.85;1.38;;;;;;;15.31;64.79;100335.97;6120816;28;20051;-66
2023/10/14 11:31:13;;;;;;;6.50;1.23;;;;;;;15.12;64.45;100336.53;6120270;28;20039;-67
2023/10/14 11:34:11;;;;;;;5.03;1.00;;;;;;;15.24;63.77;100343.06;6121360;28;20044;-66
2023/10/14 11:37:08;;;;;;;9.00;1.30;;;;;;;15.39;66.67;100346.53;6120330;28;20544;-67
2023/10/14 11:40:13;;;;;;;8.05;1.00;;;;;;;15.30;64.49;100336.16;6120861;28;20060;-67
2023/10/14 11:43:11;;;;;;;5.38;1.10;;;;;;;15.03;64.61;100326.94;6118985;28;20036;-68
2023/10/14 11:46:07;;;;;;;5.15;1.67;;;;;;;15.03;61.10;100342.97;6120338;28;20461;-67
2023/10/14 11:49:02;;;;;;;7.03;0.95;;;;;;;15.23;59.37;100337.91;6118906;28;20028;-67
2023/10/14 11:51:58;;;;;;;6.27;1.40;;;;;;;14.92;60.06;100342.59;6106295;28;20052;-67
2023/10/14 11:54:54;;;;;;;4.97;1.10;;;;;;;14.68;62.08;100354.34;6128351;28;20352;-66
2023/10/14 11:57:49;;;;;;;5.85;0.90;;;;;;;14.32;64.07;100351.50;6120448;28;20045;-66
2023/10/14 12:00:45;;;;;;;10.70;1.38;;;;;;;14.29;64.39;100341.97;6119361;28;20087;-67
2023/10/14 12:03:40;;;;;;;3.87;0.77;;;;;;;14.47;64.20;100340.84;6119810;28;20517;-67
2023/10/14 12:06:35;;;;;;;6.15;1.30;;;;;;;14.62;62.93;100345.22;6125416;28;20024;-66
2023/10/14 12:09:31;;;;;;;7.97;1.30;;;;;;;14.77;62.04;100343.41;6123760;28;20032;-66
2023/10/14 12:12:27;;;;;;;7.70;1.30;;;;;;;14.77;62.58;100326.56;6117824;28;20033;-67
2023/10/14 12:15:22;;;;;;;11.38;1.58;;;;;;;14.72;61.42;100345.81;6128646;28;20029;-66
2023/10/14 12:18:18;;;;;;;8.00;1.47;;;;;;;14.50;61.79;100353.84;6119573;28;20059;-67
2023/10/14 12:21:13;;;;;;;5.13;1.40;;;;;;;14.59;64.10;100366.13;6118532;28;20036;-66
2023/10/14 12:24:09;;;;;;;7.60;1.65;;;;;;;14.58;64.28;100351.09;6122581;28;20028;-66
2023/10/14 12:27:10;;;;;;;9.65;1.60;;;;;;;14.85;63.18;100347.84;6117774;28;20039;-66
2023/10/14 12:30:08;;;;;;;7.10;1.60;;;;;;;15.13;62.34;100359.56;6115541;28;20072;-67
2023/10/14 12:33:05;;;;;;;5.28;1.20;;;;;;;15.10;62.52;100338.56;6119079;28;20035;-67
2023/10/14 12:36:09;;;;;;;6.45;1.38;;;;;;;15.22;62.98;100347.75;6119650;28;20032;-66
2023/10/14 12:39:09;;;;;;;5.45;1.75;;;;;;;15.03;63.28;100369.66;6118356;28;20024;-66
2023/10/14 12:42:06;;;;;;;5.45;1.25;;;;;;;15.11;64.81;100369.56;6119167;28;20033;-67
2023/10/14 12:45:11;;;;;;;7.78;1.13;;;;;;;15.08;61.83;100372.63;6120166;28;20029;-67
2023/10/14 12:48:09;;;;;;;7.18;1.67;;;;;;;15.08;62.19;100369.13;6123492;28;20036;-66
2023/10/14 12:51:17;;;;;;;7.95;1.20;;;;;;;14.98;62.22;100372.06;6124024;28;20028;-67
2023/10/14 12:54:19;;;;;;;9.82;1.90;;;;;;;14.80;60.82;100358.22;6124577;28;20388;-67
2023/10/14 12:57:14;;;;;;;8.38;1.67;;;;;;;14.93;59.96;100374.44;6122836;28;20071;-65
2023/10/14 13:00:17;;;;;;;5.50;1.40;;;;;;;15.04;62.27;100374.00;6123709;28;20174;-66
2023/10/14 13:03:12;;;;;;;11.00;1.35;;;;;;;14.77;61.45;100374.59;6123269;28;20292;-65
2023/10/14 13:06:08;;;;;;;7.63;1.30;;;;;;;14.89;60.99;100367.81;6120625;28;20049;-66
2023/10/14 13:09:08;;;;;;;8.85;1.00;;;;;;;14.93;61.13;100368.28;6123749;28;20460;-65
2023/10/14 13:12:16;;;;;;;4.40;1.25;;;;;;;14.99;60.73;100360.38;6123707;28;20032;-67
2023/10/14 13:15:12;;;;;;;5.28;1.15;;;;;;;15.06;59.18;100374.63;6123790;28;20032;-66
2023/10/14 13:18:07;;;;;;;5.77;1.63;;;;;;;14.71;58.40;100370.00;6123000;28;20051;-65
2023/10/14 13:21:05;;;;;;;7.63;1.30;;;;;;;14.39;60.52;100371.09;6121591;28;20498;-66
2023/10/14 13:24:05;;;;;;;7.60;1.17;;;;;;;14.45;61.44;100390.91;6123310;28;20130;-67
2023/10/14 13:27:00;;;;;;;8.20;1.10;;;;;;;14.65;61.73;100387.56;6123280;28;20546;-67
2023/10/14 13:29:56;;;;;;;7.27;1.07;;;;;;;14.78;60.14;100393.09;6122876;28;20028;-66
2023/10/14 13:32:55;;;;;;;12.27;1.57;;;;;;;14.66;58.89;100399.06;6123395;28;20629;-66
2023/10/14 13:35:55;;;;;;;6.85;0.98;;;;;;;14.46;59.69;100398.72;6102731;28;20035;-67
2023/10/14 13:38:52;;;;;;;5.72;1.23;;;;;;;14.37;60.61;100406.97;6122904;28;20033;-67
2023/10/14 13:41:48;;;;;;;4.95;1.05;;;;;;;14.29;61.93;100408.66;6122787;28;20421;-67
2023/10/14 13:44:43;;;;;;;5.75;1.25;;;;;;;14.16;64.64;100426.22;6123443;28;20082;-66
2023/10/14 13:47:41;;;;;;;8.90;1.07;;;;;;;13.64;68.45;100442.03;6122768;28;20032;-67
2023/10/14 13:50:37;;;;;;;3.42;0.90;;;;;;;12.99;73.86;100455.44;6122410;28;20024;-69
2023/10/14 13:53:33;;;;;;;4.15;1.13;;;;;;;12.77;77.83;100456.13;6117023;28;20028;-66
2023/10/14 13:56:31;;;;;;;7.45;1.15;;;;;;;12.61;82.20;100448.13;6125083;28;20491;-66
2023/10/14 13:59:26;;;;;;;6.38;0.80;;;;;;;12.71;83.13;100472.75;6033173;28;20064;-67
2023/10/14 14:02:21;;;;;;;3.47;0.63;;;;;;;12.62;85.59;100460.44;6116878;28;20539;-67
2023/10/14 14:05:18;;;;;;;4.37;0.87;;;;;;;12.58;84.72;100455.63;6120220;28;20111;-66
2023/10/14 14:08:15;;;;;;;5.03;0.73;;;;;;;12.39;80.29;100446.94;6122739;28;20346;-66